Item Display Status Humidity-temperature Sensor

Elevation Above Sea Level: 3 m

 

Deployed Sensor

  • Serial Number: 20066132
  • NDBC Property Number: 40496
  • Start Date: 2/8/2017 (08:08:51 Z)
  • End Date: 5/4/2018 (15:15:00 Z)
Relative Humidity [%]     6 entries per hour
Showing data from 5/4/2018 (15:00:00 Z) to 5/3/2018 (00:00:01 Z)
Previous Next [ Day | 3-Days | 7-Days ]
First Last
Prev [ Day | 3-Days | 7-Days ] Next
First Last

Start Time:     :
End Time:     :     
Time (in GMT) :00 :50 :40 :30 :20 :10
Previous Next [ Day | 3-Days | 7-Days ]
First Last
Prev [ Day | 3-Days | 7-Days ] Next
First Last


123 => good data
MM => data is determined as missing
-- => data not received/configured
Back to Top Back to Top
5/4/2018 15:00 to 14:10 95.81 95.56 95.81 95.70 95.66 95.44
5/4/2018 14:00 to 13:10 95.76 95.54 95.23 95.05 94.78 94.64
5/4/2018 13:00 to 12:10 94.54 94.23 94.11 93.56 93.27 92.76
5/4/2018 12:00 to 11:10 92.31 92.10 92.29 91.63 91.84 92.82
5/4/2018 11:00 to 10:10 93.11 93.00 93.07 92.94 92.62 92.92
5/4/2018 10:00 to 9:10 92.78 92.58 92.17 91.59 90.49 91.45
5/4/2018 09:00 to 8:10 93.47 93.64 93.35 92.43 91.92 91.06
5/4/2018 08:00 to 7:10 91.14 90.02 88.69 86.85 82.86 82.92
5/4/2018 07:00 to 6:10 84.23 86.03 87.65 88.38 89.08 88.16
5/4/2018 06:00 to 5:10 85.66 81.33 81.64 79.78 80.41 80.88
5/4/2018 05:00 to 4:10 81.90 82.07 80.82 80.06 78.92 78.67
5/4/2018 04:00 to 3:10 78.73 80.14 80.94 77.94 78.32 79.24
5/4/2018 03:00 to 2:10 78.77 78.98 77.00 77.57 78.20 79.72
5/4/2018 02:00 to 1:10 81.80 82.56 82.35 81.96 81.37 80.92
5/4/2018 01:00 to 0:10 80.66 80.68 80.59 79.00 77.51 77.28
5/4/2018 00:00 to 23:10 76.63 76.46 77.73 78.84 80.37 81.35
5/3/2018 23:00 to 22:10 81.72 81.92 82.09 82.99 85.38 84.62
5/3/2018 22:00 to 21:10 85.05 80.70 79.33 79.33 79.82 80.80
5/3/2018 21:00 to 20:10 82.41 82.99 83.27 83.93 84.38 84.97
5/3/2018 20:00 to 19:10 85.13 85.62 85.32 85.97 85.28 82.80
5/3/2018 19:00 to 18:10 -- -- -- -- -- --
5/3/2018 18:00 to 17:10 80.27 80.04 80.57 81.43 81.74 82.17
5/3/2018 17:00 to 16:10 82.68 84.48 86.30 86.71 87.55 87.81
5/3/2018 16:00 to 15:10 88.69 89.51 90.94 92.51 93.07 93.13
5/3/2018 15:00 to 14:10 93.02 92.84 92.64 91.82 92.96 93.17
5/3/2018 14:00 to 13:10 93.99 94.44 94.27 94.48 94.01 93.60
5/3/2018 13:00 to 12:10 93.23 92.23 91.82 89.75 87.95 88.67
5/3/2018 12:00 to 11:10 89.88 91.74 92.13 91.33 91.61 90.26
5/3/2018 11:00 to 10:10 88.61 85.34 85.62 86.13 86.67 88.57
5/3/2018 10:00 to 9:10 88.83 87.89 87.71 87.08 87.57 87.75
5/3/2018 09:00 to 8:10 88.51 88.18 88.36 88.22 88.24 86.71
5/3/2018 08:00 to 7:10 86.30 86.63 86.18 86.52 87.10 87.85
5/3/2018 07:00 to 6:10 87.08 86.46 87.79 87.44 85.64 85.24
5/3/2018 06:00 to 5:10 85.05 84.09 83.29 84.01 85.15 85.77
5/3/2018 05:00 to 4:10 86.93 86.75 84.19 83.93 83.68 83.68
5/3/2018 04:00 to 3:10 81.21 80.21 83.56 83.58 82.90 83.17
5/3/2018 03:00 to 2:10 83.89 86.67 87.28 87.48 87.20 88.45
5/3/2018 02:00 to 1:10 87.50 85.38 84.99 84.13 83.74 83.44
5/3/2018 01:00 to 0:10 83.64 83.37 83.78 83.93 83.74 84.01

 

 

 

Air Temperature [°C]     6 entries per hour
Showing data from 5/4/2018 (15:00:00 Z) to 5/3/2018 (00:00:01 Z)
Previous Next [ Day | 3-Days | 7-Days ]
First Last
Prev [ Day | 3-Days | 7-Days ] Next
First Last

Start Time:     :
End Time:     :     
Time (in GMT) :00 :50 :40 :30 :20 :10
Previous Next [ Day | 3-Days | 7-Days ]
First Last
Prev [ Day | 3-Days | 7-Days ] Next
First Last


123 => good data
MM => data is determined as missing
-- => data not received/configured
Back to Top Back to Top
5/4/2018 15:00 to 14:10 24.62 24.50 24.65 24.42 24.41 24.24
5/4/2018 14:00 to 13:10 24.45 24.66 24.53 24.38 24.02 24.46
5/4/2018 13:00 to 12:10 24.60 24.48 24.77 25.18 25.09 25.18
5/4/2018 12:00 to 11:10 25.29 25.35 25.24 25.42 25.52 25.27
5/4/2018 11:00 to 10:10 25.44 25.14 25.35 25.37 25.32 25.46
5/4/2018 10:00 to 9:10 25.19 25.37 25.28 25.40 25.27 25.14
5/4/2018 09:00 to 8:10 25.05 25.23 25.45 25.33 25.39 25.61
5/4/2018 08:00 to 7:10 25.60 25.93 26.26 26.55 26.72 26.69
5/4/2018 07:00 to 6:10 26.65 26.47 26.38 26.29 26.43 26.48
5/4/2018 06:00 to 5:10 27.08 27.51 27.56 27.65 27.61 27.52
5/4/2018 05:00 to 4:10 27.63 27.50 27.75 27.75 27.72 27.71
5/4/2018 04:00 to 3:10 27.71 27.69 27.59 27.80 27.69 27.68
5/4/2018 03:00 to 2:10 27.71 27.79 27.81 27.74 27.54 27.54
5/4/2018 02:00 to 1:10 27.49 27.62 27.48 27.65 27.48 27.46
5/4/2018 01:00 to 0:10 27.43 27.52 27.43 27.75 27.80 27.84
5/4/2018 00:00 to 23:10 27.70 27.60 27.36 27.39 27.26 27.23
5/3/2018 23:00 to 22:10 26.94 27.08 26.82 26.69 26.50 26.52
5/3/2018 22:00 to 21:10 26.61 27.20 27.16 27.03 26.94 26.67
5/3/2018 21:00 to 20:10 26.70 26.58 26.67 26.58 26.51 26.55
5/3/2018 20:00 to 19:10 26.47 26.53 26.46 26.45 26.57 26.56
5/3/2018 19:00 to 18:10 -- -- -- -- -- --
5/3/2018 18:00 to 17:10 26.47 26.40 26.34 26.27 26.23 25.99
5/3/2018 17:00 to 16:10 25.76 25.56 25.61 25.36 25.24 25.10
5/3/2018 16:00 to 15:10 25.11 24.89 25.04 24.70 24.66 24.42
5/3/2018 15:00 to 14:10 24.39 24.39 24.61 24.58 24.73 24.66
5/3/2018 14:00 to 13:10 24.18 24.27 24.03 24.04 24.03 24.18
5/3/2018 13:00 to 12:10 24.33 25.57 25.84 26.38 26.46 26.53
5/3/2018 12:00 to 11:10 26.29 25.94 25.74 25.82 25.63 25.97
5/3/2018 11:00 to 10:10 26.30 26.92 26.85 26.96 26.59 26.61
5/3/2018 10:00 to 9:10 26.73 26.69 26.89 27.13 27.00 26.97
5/3/2018 09:00 to 8:10 26.84 27.11 26.95 26.96 27.04 27.12
5/3/2018 08:00 to 7:10 27.01 26.99 27.16 27.25 27.12 27.10
5/3/2018 07:00 to 6:10 27.20 27.13 27.19 27.16 27.49 27.36
5/3/2018 06:00 to 5:10 27.40 27.50 27.43 27.34 27.36 27.26
5/3/2018 05:00 to 4:10 27.20 27.18 27.76 27.68 27.63 27.54
5/3/2018 04:00 to 3:10 27.91 27.83 27.62 27.64 27.58 27.63
5/3/2018 03:00 to 2:10 27.54 27.40 27.35 27.15 26.98 26.80
5/3/2018 02:00 to 1:10 26.55 27.01 27.42 27.55 27.41 27.44
5/3/2018 01:00 to 0:10 27.59 27.48 27.52 27.61 27.56 27.57